sensor_id;sensor_type;location;lat;lon;timestamp;pressure;altitude;pressure_sealevel;temperature;humidity
5883;BME280;2967;51.488;6.618;2024-02-14T00:00:41;101245.00;;;10.59;100.00
5883;BME280;2967;51.488;6.618;2024-02-14T00:05:46;101240.66;;;10.58;100.00
5883;BME280;2967;51.488;6.618;2024-02-14T00:10:49;101239.44;;;10.64;100.00
5883;BME280;2967;51.488;6.618;2024-02-14T00:15:53;101233.94;;;10.53;100.00
5883;BME280;2967;51.488;6.618;2024-02-14T00:21:02;101210.19;;;10.51;100.00
5883;BME280;2967;51.488;6.618;2024-02-14T00:26:05;101218.63;;;10.58;100.00
5883;BME280;2967;51.488;6.618;2024-02-14T00:31:09;101199.22;;;10.43;100.00
5883;BME280;2967;51.488;6.618;2024-02-14T00:36:13;101195.66;;;10.29;100.00
5883;BME280;2967;51.488;6.618;2024-02-14T00:41:16;101226.13;;;10.65;100.00
5883;BME280;2967;51.488;6.618;2024-02-14T00:46:19;101228.00;;;10.63;100.00
5883;BME280;2967;51.488;6.618;2024-02-14T00:51:24;101214.97;;;10.60;100.00
5883;BME280;2967;51.488;6.618;2024-02-14T00:56:29;101191.41;;;10.56;100.00
5883;BME280;2967;51.488;6.618;2024-02-14T01:01:32;101164.63;;;10.46;100.00
5883;BME280;2967;51.488;6.618;2024-02-14T01:06:36;101189.28;;;10.76;100.00
5883;BME280;2967;51.488;6.618;2024-02-14T01:11:42;101172.97;;;10.54;100.00
5883;BME280;2967;51.488;6.618;2024-02-14T01:16:45;101172.00;;;10.71;100.00
5883;BME280;2967;51.488;6.618;2024-02-14T01:21:49;101181.28;;;10.78;100.00
5883;BME280;2967;51.488;6.618;2024-02-14T01:26:53;101136.16;;;10.65;100.00
5883;BME280;2967;51.488;6.618;2024-02-14T01:31:56;101191.41;;;10.85;100.00
5883;BME280;2967;51.488;6.618;2024-02-14T01:37:02;101192.19;;;10.87;100.00
5883;BME280;2967;51.488;6.618;2024-02-14T01:42:04;101183.94;;;10.92;100.00
5883;BME280;2967;51.488;6.618;2024-02-14T01:47:08;101195.41;;;11.06;100.00
5883;BME280;2967;51.488;6.618;2024-02-14T01:52:14;101171.97;;;11.14;100.00
5883;BME280;2967;51.488;6.618;2024-02-14T01:57:18;101178.03;;;11.16;100.00
5883;BME280;2967;51.488;6.618;2024-02-14T02:02:21;101141.81;;;11.03;100.00
5883;BME280;2967;51.488;6.618;2024-02-14T02:07:26;101177.56;;;11.24;100.00
5883;BME280;2967;51.488;6.618;2024-02-14T02:12:57;101173.22;;;11.23;100.00
5883;BME280;2967;51.488;6.618;2024-02-14T02:18:01;101163.28;;;11.40;100.00
5883;BME280;2967;51.488;6.618;2024-02-14T02:23:13;101177.22;;;11.58;100.00
5883;BME280;2967;51.488;6.618;2024-02-14T02:28:20;101151.44;;;11.32;100.00
5883;BME280;2967;51.488;6.618;2024-02-14T02:33:23;101146.09;;;11.19;100.00
5883;BME280;2967;51.488;6.618;2024-02-14T02:38:27;101155.31;;;11.26;100.00
5883;BME280;2967;51.488;6.618;2024-02-14T02:43:30;101164.13;;;11.41;100.00
5883;BME280;2967;51.488;6.618;2024-02-14T02:48:33;101129.22;;;11.06;100.00
5883;BME280;2967;51.488;6.618;2024-02-14T02:53:38;101155.53;;;11.23;100.00
5883;BME280;2967;51.488;6.618;2024-02-14T02:58:43;101156.66;;;11.33;100.00
5883;BME280;2967;51.488;6.618;2024-02-14T03:03:45;101119.13;;;11.13;100.00
5883;BME280;2967;51.488;6.618;2024-02-14T03:08:50;101133.94;;;11.15;100.00
5883;BME280;2967;51.488;6.618;2024-02-14T03:13:56;101164.25;;;11.39;100.00
5883;BME280;2967;51.488;6.618;2024-02-14T03:18:59;101142.88;;;11.28;100.00
5883;BME280;2967;51.488;6.618;2024-02-14T03:24:05;101145.22;;;11.19;100.00
5883;BME280;2967;51.488;6.618;2024-02-14T03:29:11;101150.78;;;11.42;100.00
5883;BME280;2967;51.488;6.618;2024-02-14T03:34:14;101136.16;;;11.23;100.00
5883;BME280;2967;51.488;6.618;2024-02-14T03:39:39;101139.66;;;11.09;100.00
5883;BME280;2967;51.488;6.618;2024-02-14T03:45:02;101152.41;;;11.31;100.00
5883;BME280;2967;51.488;6.618;2024-02-14T03:50:27;101147.03;;;11.18;100.00
5883;BME280;2967;51.488;6.618;2024-02-14T03:55:34;101124.59;;;11.10;100.00
5883;BME280;2967;51.488;6.618;2024-02-14T04:00:46;101104.38;;;10.95;100.00
5883;BME280;2967;51.488;6.618;2024-02-14T04:05:52;101122.41;;;11.16;100.00
5883;BME280;2967;51.488;6.618;2024-02-14T04:10:56;101149.28;;;11.10;100.00
5883;BME280;2967;51.488;6.618;2024-02-14T04:16:01;101122.97;;;10.93;100.00
5883;BME280;2967;51.488;6.618;2024-02-14T04:21:07;101165.56;;;11.18;100.00
5883;BME280;2967;51.488;6.618;2024-02-14T04:26:19;101160.63;;;11.40;100.00
5883;BME280;2967;51.488;6.618;2024-02-14T04:31:23;101147.47;;;11.11;100.00
5883;BME280;2967;51.488;6.618;2024-02-14T04:36:27;101156.84;;;11.30;100.00
5883;BME280;2967;51.488;6.618;2024-02-14T04:41:32;101154.56;;;11.24;100.00
5883;BME280;2967;51.488;6.618;2024-02-14T04:46:57;101161.38;;;11.42;100.00
5883;BME280;2967;51.488;6.618;2024-02-14T04:52:01;101173.88;;;11.40;100.00
5883;BME280;2967;51.488;6.618;2024-02-14T04:57:05;101191.84;;;11.49;100.00
5883;BME280;2967;51.488;6.618;2024-02-14T05:02:08;101195.34;;;11.36;100.00
5883;BME280;2967;51.488;6.618;2024-02-14T05:07:12;101194.97;;;11.28;100.00
5883;BME280;2967;51.488;6.618;2024-02-14T05:12:16;101221.00;;;11.49;100.00
5883;BME280;2967;51.488;6.618;2024-02-14T05:17:22;101215.13;;;11.44;100.00
5883;BME280;2967;51.488;6.618;2024-02-14T05:22:25;101219.59;;;11.44;100.00
5883;BME280;2967;51.488;6.618;2024-02-14T05:27:30;101227.25;;;11.48;100.00
5883;BME280;2967;51.488;6.618;2024-02-14T05:32:33;101216.38;;;11.53;100.00
5883;BME280;2967;51.488;6.618;2024-02-14T05:37:36;101224.13;;;11.56;100.00
5883;BME280;2967;51.488;6.618;2024-02-14T05:42:41;101200.91;;;11.45;100.00
5883;BME280;2967;51.488;6.618;2024-02-14T05:47:47;101216.47;;;11.37;100.00
5883;BME280;2967;51.488;6.618;2024-02-14T05:52:50;101185.53;;;11.24;100.00
5883;BME280;2967;51.488;6.618;2024-02-14T05:57:54;101223.75;;;11.62;100.00
5883;BME280;2967;51.488;6.618;2024-02-14T06:03:00;101225.28;;;11.66;100.00
5883;BME280;2967;51.488;6.618;2024-02-14T06:08:04;101226.69;;;11.57;100.00
5883;BME280;2967;51.488;6.618;2024-02-14T06:13:08;101198.75;;;11.38;100.00
5883;BME280;2967;51.488;6.618;2024-02-14T06:18:11;101238.41;;;11.67;100.00
5883;BME280;2967;51.488;6.618;2024-02-14T06:23:14;101190.97;;;11.21;100.00
5883;BME280;2967;51.488;6.618;2024-02-14T06:28:18;101158.13;;;10.81;100.00
5883;BME280;2967;51.488;6.618;2024-02-14T06:33:26;101198.28;;;11.17;100.00
5883;BME280;2967;51.488;6.618;2024-02-14T06:38:31;101240.06;;;11.26;100.00
5883;BME280;2967;51.488;6.618;2024-02-14T06:43:36;101262.00;;;11.58;100.00
5883;BME280;2967;51.488;6.618;2024-02-14T06:48:42;101262.66;;;11.61;100.00
5883;BME280;2967;51.488;6.618;2024-02-14T06:53:46;101217.47;;;11.21;100.00
5883;BME280;2967;51.488;6.618;2024-02-14T06:58:50;101268.16;;;11.58;100.00
5883;BME280;2967;51.488;6.618;2024-02-14T07:03:55;101238.56;;;11.22;100.00
5883;BME280;2967;51.488;6.618;2024-02-14T07:08:58;101280.72;;;11.69;100.00
5883;BME280;2967;51.488;6.618;2024-02-14T07:14:02;101254.66;;;11.33;100.00
5883;BME280;2967;51.488;6.618;2024-02-14T07:19:05;101286.03;;;11.69;100.00
5883;BME280;2967;51.488;6.618;2024-02-14T07:24:08;101304.41;;;11.86;100.00
5883;BME280;2967;51.488;6.618;2024-02-14T07:29:12;101256.09;;;11.53;100.00
5883;BME280;2967;51.488;6.618;2024-02-14T07:34:15;101281.75;;;11.66;100.00
5883;BME280;2967;51.488;6.618;2024-02-14T07:39:18;101304.59;;;11.69;100.00
5883;BME280;2967;51.488;6.618;2024-02-14T07:44:22;101293.81;;;11.86;100.00
5883;BME280;2967;51.488;6.618;2024-02-14T07:49:25;101294.19;;;11.94;100.00
5883;BME280;2967;51.488;6.618;2024-02-14T07:54:28;101283.75;;;11.91;100.00
5883;BME280;2967;51.488;6.618;2024-02-14T07:59:32;101299.28;;;11.97;100.00
5883;BME280;2967;51.488;6.618;2024-02-14T08:04:35;101298.06;;;12.02;100.00
5883;BME280;2967;51.488;6.618;2024-02-14T08:09:38;101242.53;;;12.13;100.00
5883;BME280;2967;51.488;6.618;2024-02-14T08:14:43;101245.00;;;12.16;100.00
5883;BME280;2967;51.488;6.618;2024-02-14T08:19:46;101304.16;;;12.71;100.00
5883;BME280;2967;51.488;6.618;2024-02-14T08:24:49;101321.63;;;12.88;100.00
5883;BME280;2967;51.488;6.618;2024-02-14T08:29:55;101329.53;;;12.89;100.00
5883;BME280;2967;51.488;6.618;2024-02-14T08:35:03;101326.53;;;12.67;100.00
5883;BME280;2967;51.488;6.618;2024-02-14T08:40:07;101334.19;;;12.72;100.00
5883;BME280;2967;51.488;6.618;2024-02-14T08:45:12;101352.00;;;12.84;100.00
5883;BME280;2967;51.488;6.618;2024-02-14T08:50:15;101355.81;;;12.80;100.00
5883;BME280;2967;51.488;6.618;2024-02-14T08:55:18;101335.75;;;12.21;100.00
5883;BME280;2967;51.488;6.618;2024-02-14T09:00:23;101346.97;;;12.53;100.00
5883;BME280;2967;51.488;6.618;2024-02-14T09:05:26;101336.41;;;12.65;100.00
5883;BME280;2967;51.488;6.618;2024-02-14T09:10:31;101355.91;;;12.78;100.00
5883;BME280;2967;51.488;6.618;2024-02-14T09:15:35;101351.13;;;12.57;100.00
5883;BME280;2967;51.488;6.618;2024-02-14T09:20:38;101351.63;;;12.49;100.00
5883;BME280;2967;51.488;6.618;2024-02-14T09:25:43;101321.78;;;12.32;100.00
5883;BME280;2967;51.488;6.618;2024-02-14T09:30:47;101350.19;;;12.58;100.00
5883;BME280;2967;51.488;6.618;2024-02-14T09:35:51;101352.81;;;12.58;100.00
5883;BME280;2967;51.488;6.618;2024-02-14T09:40:58;101356.22;;;12.74;100.00
5883;BME280;2967;51.488;6.618;2024-02-14T09:46:06;101365.75;;;12.76;100.00
5883;BME280;2967;51.488;6.618;2024-02-14T09:51:10;101378.28;;;12.74;100.00
5883;BME280;2967;51.488;6.618;2024-02-14T09:56:13;101366.56;;;12.91;100.00
5883;BME280;2967;51.488;6.618;2024-02-14T10:01:20;101381.84;;;13.01;100.00
5883;BME280;2967;51.488;6.618;2024-02-14T10:06:25;101377.78;;;12.96;100.00
5883;BME280;2967;51.488;6.618;2024-02-14T10:11:29;101325.19;;;12.74;100.00
5883;BME280;2967;51.488;6.618;2024-02-14T10:16:35;101376.16;;;13.19;100.00
5883;BME280;2967;51.488;6.618;2024-02-14T10:21:43;101386.56;;;13.10;100.00
5883;BME280;2967;51.488;6.618;2024-02-14T10:26:46;101356.09;;;13.16;100.00
5883;BME280;2967;51.488;6.618;2024-02-14T10:31:50;101398.88;;;13.11;100.00
5883;BME280;2967;51.488;6.618;2024-02-14T10:36:56;101403.75;;;13.05;100.00
5883;BME280;2967;51.488;6.618;2024-02-14T10:41:59;101396.38;;;13.22;100.00
5883;BME280;2967;51.488;6.618;2024-02-14T10:47:06;101380.69;;;13.44;100.00
5883;BME280;2967;51.488;6.618;2024-02-14T10:52:12;101400.50;;;13.52;100.00
5883;BME280;2967;51.488;6.618;2024-02-14T10:57:19;101378.59;;;13.49;100.00
5883;BME280;2967;51.488;6.618;2024-02-14T11:02:29;101376.47;;;13.54;100.00
5883;BME280;2967;51.488;6.618;2024-02-14T11:07:34;101402.03;;;13.30;100.00
5883;BME280;2967;51.488;6.618;2024-02-14T11:12:37;101413.69;;;13.54;100.00
5883;BME280;2967;51.488;6.618;2024-02-14T11:17:43;101404.66;;;13.56;100.00
5883;BME280;2967;51.488;6.618;2024-02-14T11:22:56;101410.41;;;13.63;100.00
5883;BME280;2967;51.488;6.618;2024-02-14T11:28:00;101414.06;;;13.87;100.00
5883;BME280;2967;51.488;6.618;2024-02-14T11:33:16;101390.88;;;13.89;100.00
5883;BME280;2967;51.488;6.618;2024-02-14T11:38:20;101386.72;;;13.85;100.00
5883;BME280;2967;51.488;6.618;2024-02-14T11:43:24;101395.63;;;13.71;100.00
5883;BME280;2967;51.488;6.618;2024-02-14T11:48:28;101318.59;;;13.32;100.00
5883;BME280;2967;51.488;6.618;2024-02-14T11:53:31;101305.88;;;13.50;100.00
5883;BME280;2967;51.488;6.618;2024-02-14T11:58:34;101383.94;;;14.11;100.00
5883;BME280;2967;51.488;6.618;2024-02-14T12:03:39;101380.13;;;14.03;100.00
5883;BME280;2967;51.488;6.618;2024-02-14T12:08:43;101383.44;;;14.06;100.00
5883;BME280;2967;51.488;6.618;2024-02-14T12:13:49;101367.34;;;13.58;100.00
5883;BME280;2967;51.488;6.618;2024-02-14T12:19:03;101320.75;;;13.40;100.00
5883;BME280;2967;51.488;6.618;2024-02-14T12:24:09;101354.59;;;13.63;100.00
5883;BME280;2967;51.488;6.618;2024-02-14T12:29:12;101382.88;;;14.01;100.00
5883;BME280;2967;51.488;6.618;2024-02-14T12:34:17;101380.75;;;13.69;100.00
5883;BME280;2967;51.488;6.618;2024-02-14T12:39:26;101383.13;;;13.73;100.00
5883;BME280;2967;51.488;6.618;2024-02-14T12:44:30;101391.69;;;13.77;100.00
5883;BME280;2967;51.488;6.618;2024-02-14T12:49:34;101379.50;;;13.74;100.00
5883;BME280;2967;51.488;6.618;2024-02-14T12:54:37;101355.44;;;13.51;100.00
5883;BME280;2967;51.488;6.618;2024-02-14T12:59:40;101360.53;;;13.91;100.00
5883;BME280;2967;51.488;6.618;2024-02-14T13:04:44;101368.00;;;14.11;100.00
5883;BME280;2967;51.488;6.618;2024-02-14T13:09:47;101343.63;;;13.92;100.00
5883;BME280;2967;51.488;6.618;2024-02-14T13:14:50;101325.47;;;13.86;100.00
5883;BME280;2967;51.488;6.618;2024-02-14T13:19:58;101356.50;;;13.86;100.00
5883;BME280;2967;51.488;6.618;2024-02-14T13:25:04;101348.03;;;13.93;100.00
5883;BME280;2967;51.488;6.618;2024-02-14T13:30:08;101334.81;;;13.92;100.00
5883;BME280;2967;51.488;6.618;2024-02-14T13:35:12;101340.13;;;13.92;100.00
5883;BME280;2967;51.488;6.618;2024-02-14T13:40:15;101344.81;;;13.88;100.00
5883;BME280;2967;51.488;6.618;2024-02-14T13:45:18;101343.66;;;13.80;100.00
5883;BME280;2967;51.488;6.618;2024-02-14T13:50:23;101339.81;;;13.84;100.00
5883;BME280;2967;51.488;6.618;2024-02-14T13:55:26;101306.09;;;13.59;100.00
5883;BME280;2967;51.488;6.618;2024-02-14T14:00:28;101339.06;;;13.82;100.00
5883;BME280;2967;51.488;6.618;2024-02-14T14:05:32;101346.06;;;13.70;100.00
5883;BME280;2967;51.488;6.618;2024-02-14T14:10:35;101355.53;;;13.62;100.00
5883;BME280;2967;51.488;6.618;2024-02-14T14:15:38;101308.75;;;13.34;100.00
5883;BME280;2967;51.488;6.618;2024-02-14T14:20:44;101325.94;;;13.29;100.00
5883;BME280;2967;51.488;6.618;2024-02-14T14:25:47;101352.63;;;13.52;100.00
5883;BME280;2967;51.488;6.618;2024-02-14T14:30:52;101347.94;;;13.31;100.00
5883;BME280;2967;51.488;6.618;2024-02-14T14:35:57;101354.00;;;13.33;100.00
5883;BME280;2967;51.488;6.618;2024-02-14T14:41:00;101346.91;;;13.46;100.00
5883;BME280;2967;51.488;6.618;2024-02-14T14:46:03;101348.81;;;13.44;100.00
5883;BME280;2967;51.488;6.618;2024-02-14T14:51:10;101318.63;;;13.45;100.00
5883;BME280;2967;51.488;6.618;2024-02-14T14:56:13;101315.78;;;13.48;100.00
5883;BME280;2967;51.488;6.618;2024-02-14T15:01:15;101325.00;;;13.55;100.00
5883;BME280;2967;51.488;6.618;2024-02-14T15:06:20;101334.16;;;13.51;100.00
5883;BME280;2967;51.488;6.618;2024-02-14T15:11:23;101312.47;;;13.44;100.00
5883;BME280;2967;51.488;6.618;2024-02-14T15:16:26;101315.88;;;13.59;100.00
5883;BME280;2967;51.488;6.618;2024-02-14T15:21:31;101255.69;;;13.45;100.00
5883;BME280;2967;51.488;6.618;2024-02-14T15:26:34;101316.28;;;13.53;100.00
5883;BME280;2967;51.488;6.618;2024-02-14T15:31:51;101310.22;;;13.38;100.00
5883;BME280;2967;51.488;6.618;2024-02-14T15:37:14;101293.31;;;13.39;100.00
5883;BME280;2967;51.488;6.618;2024-02-14T15:42:19;101323.88;;;13.59;100.00
5883;BME280;2967;51.488;6.618;2024-02-14T15:47:22;101273.69;;;13.54;100.00
5883;BME280;2967;51.488;6.618;2024-02-14T15:52:26;101344.13;;;13.35;100.00
5883;BME280;2967;51.488;6.618;2024-02-14T15:57:30;101319.06;;;13.39;100.00
5883;BME280;2967;51.488;6.618;2024-02-14T16:02:33;101337.66;;;13.51;100.00
5883;BME280;2967;51.488;6.618;2024-02-14T16:07:37;101307.91;;;13.59;100.00
5883;BME280;2967;51.488;6.618;2024-02-14T16:12:41;101328.31;;;13.58;100.00
5883;BME280;2967;51.488;6.618;2024-02-14T16:17:45;101297.47;;;13.43;100.00
5883;BME280;2967;51.488;6.618;2024-02-14T16:22:52;101334.06;;;13.65;100.00
5883;BME280;2967;51.488;6.618;2024-02-14T16:27:56;101333.97;;;13.66;100.00
5883;BME280;2967;51.488;6.618;2024-02-14T16:33:04;101336.69;;;13.52;100.00
5883;BME280;2967;51.488;6.618;2024-02-14T16:38:09;101334.38;;;13.60;100.00
5883;BME280;2967;51.488;6.618;2024-02-14T16:43:18;101296.84;;;13.40;100.00
5883;BME280;2967;51.488;6.618;2024-02-14T16:48:21;101339.06;;;13.69;100.00
5883;BME280;2967;51.488;6.618;2024-02-14T16:53:26;101340.03;;;13.68;100.00
5883;BME280;2967;51.488;6.618;2024-02-14T16:58:30;101347.03;;;13.69;100.00
5883;BME280;2967;51.488;6.618;2024-02-14T17:03:33;101338.97;;;13.71;100.00
5883;BME280;2967;51.488;6.618;2024-02-14T17:08:48;101304.50;;;13.44;100.00
5883;BME280;2967;51.488;6.618;2024-02-14T17:13:51;101332.34;;;13.39;100.00
5883;BME280;2967;51.488;6.618;2024-02-14T17:18:54;101356.16;;;13.53;100.00
5883;BME280;2967;51.488;6.618;2024-02-14T17:24:00;101340.38;;;13.25;100.00
5883;BME280;2967;51.488;6.618;2024-02-14T17:29:03;101368.94;;;13.48;100.00
5883;BME280;2967;51.488;6.618;2024-02-14T17:34:06;101373.41;;;13.60;100.00
5883;BME280;2967;51.488;6.618;2024-02-14T17:39:11;101382.34;;;13.59;100.00
5883;BME280;2967;51.488;6.618;2024-02-14T17:44:15;101353.69;;;13.37;100.00
5883;BME280;2967;51.488;6.618;2024-02-14T17:49:21;101399.03;;;13.61;100.00
5883;BME280;2967;51.488;6.618;2024-02-14T17:54:25;101404.13;;;13.64;100.00
5883;BME280;2967;51.488;6.618;2024-02-14T17:59:28;101408.63;;;13.63;100.00
5883;BME280;2967;51.488;6.618;2024-02-14T18:04:33;101404.13;;;13.64;100.00
5883;BME280;2967;51.488;6.618;2024-02-14T18:09:37;101400.94;;;13.71;100.00
5883;BME280;2967;51.488;6.618;2024-02-14T18:14:40;101401.19;;;13.81;100.00
5883;BME280;2967;51.488;6.618;2024-02-14T18:19:44;101395.63;;;13.59;100.00
5883;BME280;2967;51.488;6.618;2024-02-14T18:24:49;101424.06;;;13.83;100.00
5883;BME280;2967;51.488;6.618;2024-02-14T18:29:53;101412.94;;;13.52;100.00
5883;BME280;2967;51.488;6.618;2024-02-14T18:34:56;101429.31;;;13.58;100.00
5883;BME280;2967;51.488;6.618;2024-02-14T18:40:00;101423.00;;;13.47;100.00
5883;BME280;2967;51.488;6.618;2024-02-14T18:45:04;101415.69;;;13.38;100.00
5883;BME280;2967;51.488;6.618;2024-02-14T18:50:09;101449.69;;;13.72;100.00
5883;BME280;2967;51.488;6.618;2024-02-14T18:55:13;101414.72;;;13.51;100.00
5883;BME280;2967;51.488;6.618;2024-02-14T19:00:17;101449.38;;;13.76;100.00
5883;BME280;2967;51.488;6.618;2024-02-14T19:05:45;101443.44;;;14.10;100.00
5883;BME280;2967;51.488;6.618;2024-02-14T19:11:02;101415.88;;;13.86;100.00
5883;BME280;2967;51.488;6.618;2024-02-14T19:16:12;101406.97;;;14.00;100.00
5883;BME280;2967;51.488;6.618;2024-02-14T19:21:31;101445.41;;;14.21;100.00
5883;BME280;2967;51.488;6.618;2024-02-14T19:26:37;101366.84;;;13.78;100.00
5883;BME280;2967;51.488;6.618;2024-02-14T19:31:40;101452.63;;;14.31;100.00
5883;BME280;2967;51.488;6.618;2024-02-14T19:36:44;101447.63;;;14.27;100.00
5883;BME280;2967;51.488;6.618;2024-02-14T19:41:52;101442.13;;;14.30;100.00
5883;BME280;2967;51.488;6.618;2024-02-14T19:46:58;101349.03;;;13.41;100.00
5883;BME280;2967;51.488;6.618;2024-02-14T19:52:00;101401.22;;;13.93;100.00
5883;BME280;2967;51.488;6.618;2024-02-14T19:57:14;101378.31;;;13.78;100.00
5883;BME280;2967;51.488;6.618;2024-02-14T20:02:17;101439.28;;;13.94;100.00
5883;BME280;2967;51.488;6.618;2024-02-14T20:07:20;101432.06;;;14.08;100.00
5883;BME280;2967;51.488;6.618;2024-02-14T20:12:29;101449.34;;;14.28;100.00
5883;BME280;2967;51.488;6.618;2024-02-14T20:17:36;101360.78;;;13.63;100.00
5883;BME280;2967;51.488;6.618;2024-02-14T20:22:40;101441.66;;;14.36;100.00
5883;BME280;2967;51.488;6.618;2024-02-14T20:27:47;101432.09;;;14.21;100.00
5883;BME280;2967;51.488;6.618;2024-02-14T20:32:51;101419.50;;;14.10;100.00
5883;BME280;2967;51.488;6.618;2024-02-14T20:37:54;101443.81;;;14.31;100.00
5883;BME280;2967;51.488;6.618;2024-02-14T20:43:00;101445.94;;;14.26;100.00
5883;BME280;2967;51.488;6.618;2024-02-14T20:48:03;101429.09;;;14.13;100.00
5883;BME280;2967;51.488;6.618;2024-02-14T20:53:08;101398.53;;;13.81;100.00
5883;BME280;2967;51.488;6.618;2024-02-14T20:58:12;101431.84;;;13.99;100.00
5883;BME280;2967;51.488;6.618;2024-02-14T21:03:16;101452.75;;;14.17;100.00
5883;BME280;2967;51.488;6.618;2024-02-14T21:08:19;101417.78;;;13.97;100.00
5883;BME280;2967;51.488;6.618;2024-02-14T21:13:24;101446.97;;;14.11;100.00
5883;BME280;2967;51.488;6.618;2024-02-14T21:18:27;101451.00;;;14.16;100.00
5883;BME280;2967;51.488;6.618;2024-02-14T21:23:31;101471.00;;;14.09;100.00
5883;BME280;2967;51.488;6.618;2024-02-14T21:28:35;101475.38;;;14.10;100.00
5883;BME280;2967;51.488;6.618;2024-02-14T21:33:38;101370.81;;;13.46;100.00
5883;BME280;2967;51.488;6.618;2024-02-14T21:38:41;101469.22;;;14.10;100.00
5883;BME280;2967;51.488;6.618;2024-02-14T21:43:50;101467.06;;;14.15;100.00
5883;BME280;2967;51.488;6.618;2024-02-14T21:48:56;101467.84;;;14.17;100.00
5883;BME280;2967;51.488;6.618;2024-02-14T21:54:00;101478.19;;;14.34;100.00
5883;BME280;2967;51.488;6.618;2024-02-14T21:59:12;101469.25;;;14.35;100.00
5883;BME280;2967;51.488;6.618;2024-02-14T22:04:15;101467.13;;;14.40;100.00
5883;BME280;2967;51.488;6.618;2024-02-14T22:09:18;101468.50;;;14.33;100.00
5883;BME280;2967;51.488;6.618;2024-02-14T22:14:24;101415.91;;;13.99;100.00
5883;BME280;2967;51.488;6.618;2024-02-14T22:19:27;101467.22;;;14.38;100.00
5883;BME280;2967;51.488;6.618;2024-02-14T22:24:30;101472.66;;;14.24;100.00
5883;BME280;2967;51.488;6.618;2024-02-14T22:29:35;101440.47;;;14.15;100.00
5883;BME280;2967;51.488;6.618;2024-02-14T22:34:39;101444.84;;;14.03;100.00
5883;BME280;2967;51.488;6.618;2024-02-14T22:39:43;101475.69;;;14.06;100.00
5883;BME280;2967;51.488;6.618;2024-02-14T22:44:51;101461.84;;;14.01;100.00
5883;BME280;2967;51.488;6.618;2024-02-14T22:49:55;101471.44;;;14.16;100.00
5883;BME280;2967;51.488;6.618;2024-02-14T22:54:59;101400.13;;;13.71;100.00
5883;BME280;2967;51.488;6.618;2024-02-14T23:00:05;101468.50;;;14.20;100.00
5883;BME280;2967;51.488;6.618;2024-02-14T23:05:17;101452.28;;;14.11;100.00
5883;BME280;2967;51.488;6.618;2024-02-14T23:10:23;101458.81;;;14.19;100.00
5883;BME280;2967;51.488;6.618;2024-02-14T23:15:47;101457.06;;;14.06;100.00
5883;BME280;2967;51.488;6.618;2024-02-14T23:21:13;101404.97;;;13.52;100.00
5883;BME280;2967;51.488;6.618;2024-02-14T23:26:18;101462.47;;;13.92;100.00
5883;BME280;2967;51.488;6.618;2024-02-14T23:31:22;101446.09;;;14.10;100.00
5883;BME280;2967;51.488;6.618;2024-02-14T23:36:25;101464.50;;;13.88;100.00
5883;BME280;2967;51.488;6.618;2024-02-14T23:41:29;101455.13;;;13.83;100.00
5883;BME280;2967;51.488;6.618;2024-02-14T23:46:33;101470.16;;;13.96;100.00
5883;BME280;2967;51.488;6.618;2024-02-14T23:51:37;101404.53;;;13.45;100.00
5883;BME280;2967;51.488;6.618;2024-02-14T23:56:44;101436.72;;;13.80;100.00
